sensor_id;sensor_type;location;lat;lon;timestamp;temperature;humidity
76789;DHT22;65740;52.464;13.446;2023-08-06T00:01:49;22.70;52.70
76789;DHT22;65740;52.464;13.446;2023-08-06T00:04:14;22.70;52.80
76789;DHT22;65740;52.464;13.446;2023-08-06T00:06:40;22.70;52.80
76789;DHT22;65740;52.464;13.446;2023-08-06T00:09:06;22.70;52.80
76789;DHT22;65740;52.464;13.446;2023-08-06T00:11:31;22.60;52.70
76789;DHT22;65740;52.464;13.446;2023-08-06T00:13:57;22.70;52.80
76789;DHT22;65740;52.464;13.446;2023-08-06T00:16:23;22.70;52.80
76789;DHT22;65740;52.464;13.446;2023-08-06T00:18:48;22.60;52.60
76789;DHT22;65740;52.464;13.446;2023-08-06T00:21:14;22.60;52.60
76789;DHT22;65740;52.464;13.446;2023-08-06T00:23:42;22.60;52.70
76789;DHT22;65740;52.464;13.446;2023-08-06T00:26:08;22.60;52.70
76789;DHT22;65740;52.464;13.446;2023-08-06T00:28:34;22.60;52.60
76789;DHT22;65740;52.464;13.446;2023-08-06T00:30:59;22.60;52.60
76789;DHT22;65740;52.464;13.446;2023-08-06T00:33:25;22.60;52.60
76789;DHT22;65740;52.464;13.446;2023-08-06T00:35:51;22.60;52.60
76789;DHT22;65740;52.464;13.446;2023-08-06T00:38:16;22.60;53.20
76789;DHT22;65740;52.464;13.446;2023-08-06T00:40:42;22.60;52.50
76789;DHT22;65740;52.464;13.446;2023-08-06T00:43:08;22.50;52.40
76789;DHT22;65740;52.464;13.446;2023-08-06T00:45:37;22.50;52.40
76789;DHT22;65740;52.464;13.446;2023-08-06T00:48:04;22.50;52.40
76789;DHT22;65740;52.464;13.446;2023-08-06T00:50:31;22.50;52.40
76789;DHT22;65740;52.464;13.446;2023-08-06T00:52:57;22.50;52.40
76789;DHT22;65740;52.464;13.446;2023-08-06T00:55:23;22.50;52.40
76789;DHT22;65740;52.464;13.446;2023-08-06T00:57:49;22.50;52.40
76789;DHT22;65740;52.464;13.446;2023-08-06T01:00:16;22.50;52.40
76789;DHT22;65740;52.464;13.446;2023-08-06T01:02:42;22.50;52.30
76789;DHT22;65740;52.464;13.446;2023-08-06T01:05:07;22.50;52.30
76789;DHT22;65740;52.464;13.446;2023-08-06T01:10:37;22.50;52.30
76789;DHT22;65740;52.464;13.446;2023-08-06T01:15:55;22.50;52.30
76789;DHT22;65740;52.464;13.446;2023-08-06T01:18:25;22.40;52.10
76789;DHT22;65740;52.464;13.446;2023-08-06T01:20:50;22.40;52.20
76789;DHT22;65740;52.464;13.446;2023-08-06T01:23:16;22.40;52.20
76789;DHT22;65740;52.464;13.446;2023-08-06T01:26:15;22.40;52.10
76789;DHT22;65740;52.464;13.446;2023-08-06T01:29:06;22.40;52.00
76789;DHT22;65740;52.464;13.446;2023-08-06T01:31:38;22.40;52.00
76789;DHT22;65740;52.464;13.446;2023-08-06T01:34:07;22.40;52.00
76789;DHT22;65740;52.464;13.446;2023-08-06T01:36:35;22.40;52.10
76789;DHT22;65740;52.464;13.446;2023-08-06T01:39:01;22.40;52.10
76789;DHT22;65740;52.464;13.446;2023-08-06T01:41:27;22.40;52.10
76789;DHT22;65740;52.464;13.446;2023-08-06T01:43:52;22.40;52.10
76789;DHT22;65740;52.464;13.446;2023-08-06T01:46:18;22.40;52.00
76789;DHT22;65740;52.464;13.446;2023-08-06T01:48:44;22.40;52.00
76789;DHT22;65740;52.464;13.446;2023-08-06T01:51:09;22.40;52.00
76789;DHT22;65740;52.464;13.446;2023-08-06T01:53:35;22.30;51.90
76789;DHT22;65740;52.464;13.446;2023-08-06T01:56:01;22.40;52.00
76789;DHT22;65740;52.464;13.446;2023-08-06T01:58:27;22.30;51.90
76789;DHT22;65740;52.464;13.446;2023-08-06T02:00:52;22.30;51.80
76789;DHT22;65740;52.464;13.446;2023-08-06T02:03:18;22.30;51.80
76789;DHT22;65740;52.464;13.446;2023-08-06T02:05:43;22.30;51.80
76789;DHT22;65740;52.464;13.446;2023-08-06T02:08:09;22.30;52.50
76789;DHT22;65740;52.464;13.446;2023-08-06T02:10:34;22.30;51.80
76789;DHT22;65740;52.464;13.446;2023-08-06T02:13:00;22.30;51.80
76789;DHT22;65740;52.464;13.446;2023-08-06T02:15:26;22.30;51.70
76789;DHT22;65740;52.464;13.446;2023-08-06T02:17:51;22.30;51.70
76789;DHT22;65740;52.464;13.446;2023-08-06T02:20:17;22.30;51.70
76789;DHT22;65740;52.464;13.446;2023-08-06T02:22:43;22.30;51.60
76789;DHT22;65740;52.464;13.446;2023-08-06T02:25:08;22.30;51.60
76789;DHT22;65740;52.464;13.446;2023-08-06T02:27:34;22.30;51.60
76789;DHT22;65740;52.464;13.446;2023-08-06T02:30:00;22.30;51.50
76789;DHT22;65740;52.464;13.446;2023-08-06T02:32:25;22.30;51.50
76789;DHT22;65740;52.464;13.446;2023-08-06T02:34:51;22.30;51.50
76789;DHT22;65740;52.464;13.446;2023-08-06T02:37:17;22.30;51.50
76789;DHT22;65740;52.464;13.446;2023-08-06T02:39:42;22.20;51.50
76789;DHT22;65740;52.464;13.446;2023-08-06T02:42:08;22.20;51.40
76789;DHT22;65740;52.464;13.446;2023-08-06T02:44:34;22.20;51.40
76789;DHT22;65740;52.464;13.446;2023-08-06T02:47:01;22.20;51.40
76789;DHT22;65740;52.464;13.446;2023-08-06T02:49:26;22.30;51.40
76789;DHT22;65740;52.464;13.446;2023-08-06T02:51:52;22.20;51.30
76789;DHT22;65740;52.464;13.446;2023-08-06T02:54:18;22.20;51.30
76789;DHT22;65740;52.464;13.446;2023-08-06T02:56:47;22.20;51.30
76789;DHT22;65740;52.464;13.446;2023-08-06T02:59:13;22.20;51.30
76789;DHT22;65740;52.464;13.446;2023-08-06T03:01:39;22.20;51.30
76789;DHT22;65740;52.464;13.446;2023-08-06T03:04:05;22.20;51.20
76789;DHT22;65740;52.464;13.446;2023-08-06T03:06:30;22.20;51.30
76789;DHT22;65740;52.464;13.446;2023-08-06T03:08:56;22.20;51.20
76789;DHT22;65740;52.464;13.446;2023-08-06T03:11:22;22.20;51.20
76789;DHT22;65740;52.464;13.446;2023-08-06T03:13:48;22.20;51.20
76789;DHT22;65740;52.464;13.446;2023-08-06T03:16:14;22.20;51.30
76789;DHT22;65740;52.464;13.446;2023-08-06T03:18:40;22.20;51.30
76789;DHT22;65740;52.464;13.446;2023-08-06T03:21:05;22.10;51.20
76789;DHT22;65740;52.464;13.446;2023-08-06T03:23:31;22.10;51.20
76789;DHT22;65740;52.464;13.446;2023-08-06T03:26:03;22.10;51.20
76789;DHT22;65740;52.464;13.446;2023-08-06T03:28:29;22.10;51.20
76789;DHT22;65740;52.464;13.446;2023-08-06T03:31:04;22.10;51.30
76789;DHT22;65740;52.464;13.446;2023-08-06T03:33:30;22.10;51.30
76789;DHT22;65740;52.464;13.446;2023-08-06T03:35:55;22.10;51.20
76789;DHT22;65740;52.464;13.446;2023-08-06T03:38:21;22.10;51.20
76789;DHT22;65740;52.464;13.446;2023-08-06T03:40:48;22.10;51.20
76789;DHT22;65740;52.464;13.446;2023-08-06T03:43:14;22.10;51.10
76789;DHT22;65740;52.464;13.446;2023-08-06T03:45:43;22.10;51.10
76789;DHT22;65740;52.464;13.446;2023-08-06T03:48:09;22.10;51.20
76789;DHT22;65740;52.464;13.446;2023-08-06T03:50:34;22.10;51.00
76789;DHT22;65740;52.464;13.446;2023-08-06T03:53:00;22.10;51.10
76789;DHT22;65740;52.464;13.446;2023-08-06T03:55:26;22.10;51.10
76789;DHT22;65740;52.464;13.446;2023-08-06T03:57:55;22.00;50.90
76789;DHT22;65740;52.464;13.446;2023-08-06T04:00:21;22.10;51.00
76789;DHT22;65740;52.464;13.446;2023-08-06T04:02:46;22.00;50.90
76789;DHT22;65740;52.464;13.446;2023-08-06T04:05:12;22.00;50.90
76789;DHT22;65740;52.464;13.446;2023-08-06T04:07:37;22.00;51.00
76789;DHT22;65740;52.464;13.446;2023-08-06T04:10:04;22.00;50.90
76789;DHT22;65740;52.464;13.446;2023-08-06T04:12:30;22.00;50.90
76789;DHT22;65740;52.464;13.446;2023-08-06T04:14:57;22.00;50.90
76789;DHT22;65740;52.464;13.446;2023-08-06T04:17:23;22.00;50.90
76789;DHT22;65740;52.464;13.446;2023-08-06T04:19:50;22.00;50.80
76789;DHT22;65740;52.464;13.446;2023-08-06T04:22:16;22.00;50.90
76789;DHT22;65740;52.464;13.446;2023-08-06T04:24:42;22.00;50.90
76789;DHT22;65740;52.464;13.446;2023-08-06T04:27:09;22.00;50.90
76789;DHT22;65740;52.464;13.446;2023-08-06T04:29:35;22.00;50.80
76789;DHT22;65740;52.464;13.446;2023-08-06T04:32:01;22.00;50.80
76789;DHT22;65740;52.464;13.446;2023-08-06T04:34:27;21.90;50.80
76789;DHT22;65740;52.464;13.446;2023-08-06T04:36:52;21.90;50.80
76789;DHT22;65740;52.464;13.446;2023-08-06T04:39:18;21.90;50.70
76789;DHT22;65740;52.464;13.446;2023-08-06T04:41:43;21.90;50.70
76789;DHT22;65740;52.464;13.446;2023-08-06T04:44:10;21.90;50.70
76789;DHT22;65740;52.464;13.446;2023-08-06T04:46:35;21.90;50.70
76789;DHT22;65740;52.464;13.446;2023-08-06T04:49:01;21.90;50.60
76789;DHT22;65740;52.464;13.446;2023-08-06T04:51:26;21.90;50.50
76789;DHT22;65740;52.464;13.446;2023-08-06T04:53:52;22.00;50.50
76789;DHT22;65740;52.464;13.446;2023-08-06T04:56:17;21.90;50.30
76789;DHT22;65740;52.464;13.446;2023-08-06T04:58:43;21.90;50.50
76789;DHT22;65740;52.464;13.446;2023-08-06T05:01:09;21.90;50.50
76789;DHT22;65740;52.464;13.446;2023-08-06T05:03:34;21.90;50.40
76789;DHT22;65740;52.464;13.446;2023-08-06T05:06:00;21.90;50.50
76789;DHT22;65740;52.464;13.446;2023-08-06T05:08:26;21.90;50.40
76789;DHT22;65740;52.464;13.446;2023-08-06T05:10:51;21.90;50.40
76789;DHT22;65740;52.464;13.446;2023-08-06T05:13:17;21.90;50.50
76789;DHT22;65740;52.464;13.446;2023-08-06T05:15:42;21.90;50.40
76789;DHT22;65740;52.464;13.446;2023-08-06T05:18:10;21.90;50.40
76789;DHT22;65740;52.464;13.446;2023-08-06T05:20:40;21.90;50.40
76789;DHT22;65740;52.464;13.446;2023-08-06T05:23:06;21.90;50.40
76789;DHT22;65740;52.464;13.446;2023-08-06T05:25:34;21.80;50.40
76789;DHT22;65740;52.464;13.446;2023-08-06T05:28:01;21.80;50.40
76789;DHT22;65740;52.464;13.446;2023-08-06T05:30:27;21.80;50.30
76789;DHT22;65740;52.464;13.446;2023-08-06T05:32:53;21.80;50.30
76789;DHT22;65740;52.464;13.446;2023-08-06T05:35:18;21.80;50.30
76789;DHT22;65740;52.464;13.446;2023-08-06T05:37:44;21.80;50.40
76789;DHT22;65740;52.464;13.446;2023-08-06T05:40:10;21.80;50.30
76789;DHT22;65740;52.464;13.446;2023-08-06T05:42:35;21.80;50.40
76789;DHT22;65740;52.464;13.446;2023-08-06T05:45:01;21.80;50.30
76789;DHT22;65740;52.464;13.446;2023-08-06T05:47:26;21.80;50.30
76789;DHT22;65740;52.464;13.446;2023-08-06T05:49:52;21.80;50.40
76789;DHT22;65740;52.464;13.446;2023-08-06T05:52:17;21.80;50.30
76789;DHT22;65740;52.464;13.446;2023-08-06T05:54:43;21.80;50.20
76789;DHT22;65740;52.464;13.446;2023-08-06T05:57:09;21.80;50.30
76789;DHT22;65740;52.464;13.446;2023-08-06T05:59:34;21.70;50.10
76789;DHT22;65740;52.464;13.446;2023-08-06T06:02:00;21.80;50.30
76789;DHT22;65740;52.464;13.446;2023-08-06T06:04:26;21.70;50.10
76789;DHT22;65740;52.464;13.446;2023-08-06T06:06:51;21.70;50.10
76789;DHT22;65740;52.464;13.446;2023-08-06T06:09:17;21.70;50.10
76789;DHT22;65740;52.464;13.446;2023-08-06T06:11:42;21.70;50.20
76789;DHT22;65740;52.464;13.446;2023-08-06T06:14:08;21.70;50.20
76789;DHT22;65740;52.464;13.446;2023-08-06T06:16:34;21.70;50.30
76789;DHT22;65740;52.464;13.446;2023-08-06T06:19:00;21.70;50.20
76789;DHT22;65740;52.464;13.446;2023-08-06T06:21:25;21.70;50.30
76789;DHT22;65740;52.464;13.446;2023-08-06T06:23:51;21.70;50.20
76789;DHT22;65740;52.464;13.446;2023-08-06T06:26:18;21.70;50.10
76789;DHT22;65740;52.464;13.446;2023-08-06T06:28:43;21.70;50.10
76789;DHT22;65740;52.464;13.446;2023-08-06T06:31:09;21.70;50.20
76789;DHT22;65740;52.464;13.446;2023-08-06T06:33:35;21.70;50.10
76789;DHT22;65740;52.464;13.446;2023-08-06T06:36:01;21.70;50.10
76789;DHT22;65740;52.464;13.446;2023-08-06T06:38:28;21.70;50.10
76789;DHT22;65740;52.464;13.446;2023-08-06T06:40:57;21.70;50.10
76789;DHT22;65740;52.464;13.446;2023-08-06T06:43:23;21.70;50.00
76789;DHT22;65740;52.464;13.446;2023-08-06T06:45:53;21.70;50.10
76789;DHT22;65740;52.464;13.446;2023-08-06T06:48:21;21.70;50.10
76789;DHT22;65740;52.464;13.446;2023-08-06T06:50:49;21.70;50.00
76789;DHT22;65740;52.464;13.446;2023-08-06T06:53:15;21.70;50.00
76789;DHT22;65740;52.464;13.446;2023-08-06T06:55:40;21.70;50.00
76789;DHT22;65740;52.464;13.446;2023-08-06T06:58:06;21.70;50.10
76789;DHT22;65740;52.464;13.446;2023-08-06T07:00:31;21.70;50.00
76789;DHT22;65740;52.464;13.446;2023-08-06T07:02:57;21.70;50.00
76789;DHT22;65740;52.464;13.446;2023-08-06T07:05:22;21.70;50.00
76789;DHT22;65740;52.464;13.446;2023-08-06T07:07:48;21.70;50.00
76789;DHT22;65740;52.464;13.446;2023-08-06T07:10:14;21.70;49.90
76789;DHT22;65740;52.464;13.446;2023-08-06T07:12:39;21.70;49.90
76789;DHT22;65740;52.464;13.446;2023-08-06T07:15:06;21.70;50.00
76789;DHT22;65740;52.464;13.446;2023-08-06T07:17:31;21.70;50.00
76789;DHT22;65740;52.464;13.446;2023-08-06T07:19:57;21.70;50.00
76789;DHT22;65740;52.464;13.446;2023-08-06T07:22:23;21.70;50.00
76789;DHT22;65740;52.464;13.446;2023-08-06T07:24:48;21.70;50.00
76789;DHT22;65740;52.464;13.446;2023-08-06T07:27:14;21.70;50.00
76789;DHT22;65740;52.464;13.446;2023-08-06T07:29:39;21.70;50.00
76789;DHT22;65740;52.464;13.446;2023-08-06T07:32:06;21.70;50.00
76789;DHT22;65740;52.464;13.446;2023-08-06T07:34:32;21.70;50.00
76789;DHT22;65740;52.464;13.446;2023-08-06T07:36:58;21.70;50.00
76789;DHT22;65740;52.464;13.446;2023-08-06T07:39:23;21.70;50.00
76789;DHT22;65740;52.464;13.446;2023-08-06T07:41:49;21.70;50.00
76789;DHT22;65740;52.464;13.446;2023-08-06T07:44:15;21.70;49.90
76789;DHT22;65740;52.464;13.446;2023-08-06T07:46:40;21.70;50.00
76789;DHT22;65740;52.464;13.446;2023-08-06T07:49:06;21.70;50.00
76789;DHT22;65740;52.464;13.446;2023-08-06T07:51:32;21.60;50.00
76789;DHT22;65740;52.464;13.446;2023-08-06T07:53:58;21.60;50.00
76789;DHT22;65740;52.464;13.446;2023-08-06T07:56:23;21.60;50.00
76789;DHT22;65740;52.464;13.446;2023-08-06T07:58:49;21.60;50.00
76789;DHT22;65740;52.464;13.446;2023-08-06T08:01:14;21.60;50.00
76789;DHT22;65740;52.464;13.446;2023-08-06T08:03:40;21.60;50.00
76789;DHT22;65740;52.464;13.446;2023-08-06T08:06:06;21.60;50.00
76789;DHT22;65740;52.464;13.446;2023-08-06T08:08:31;21.70;50.10
76789;DHT22;65740;52.464;13.446;2023-08-06T08:10:57;21.60;50.00
76789;DHT22;65740;52.464;13.446;2023-08-06T08:13:24;21.60;50.00
76789;DHT22;65740;52.464;13.446;2023-08-06T08:15:50;21.60;50.00
76789;DHT22;65740;52.464;13.446;2023-08-06T08:18:15;21.60;50.00
76789;DHT22;65740;52.464;13.446;2023-08-06T08:20:41;21.60;50.00
76789;DHT22;65740;52.464;13.446;2023-08-06T08:23:07;21.60;50.00
76789;DHT22;65740;52.464;13.446;2023-08-06T08:25:32;21.60;50.00
76789;DHT22;65740;52.464;13.446;2023-08-06T08:27:59;21.60;50.00
76789;DHT22;65740;52.464;13.446;2023-08-06T08:30:25;21.60;50.10
76789;DHT22;65740;52.464;13.446;2023-08-06T08:32:51;21.60;50.00
76789;DHT22;65740;52.464;13.446;2023-08-06T08:35:17;21.60;50.00
76789;DHT22;65740;52.464;13.446;2023-08-06T08:37:43;21.60;50.00
76789;DHT22;65740;52.464;13.446;2023-08-06T08:40:09;21.60;50.00
76789;DHT22;65740;52.464;13.446;2023-08-06T08:42:36;21.70;50.00
76789;DHT22;65740;52.464;13.446;2023-08-06T08:45:04;21.60;50.00
76789;DHT22;65740;52.464;13.446;2023-08-06T08:47:30;21.60;50.00
76789;DHT22;65740;52.464;13.446;2023-08-06T08:49:57;21.70;50.10
76789;DHT22;65740;52.464;13.446;2023-08-06T08:52:23;21.60;50.00
76789;DHT22;65740;52.464;13.446;2023-08-06T08:54:50;21.60;50.00
76789;DHT22;65740;52.464;13.446;2023-08-06T08:57:17;21.60;50.00
76789;DHT22;65740;52.464;13.446;2023-08-06T08:59:43;21.70;50.10
76789;DHT22;65740;52.464;13.446;2023-08-06T09:02:11;21.70;50.10
76789;DHT22;65740;52.464;13.446;2023-08-06T09:04:39;21.70;50.10
76789;DHT22;65740;52.464;13.446;2023-08-06T09:07:06;21.60;50.00
76789;DHT22;65740;52.464;13.446;2023-08-06T09:09:34;21.70;50.10
76789;DHT22;65740;52.464;13.446;2023-08-06T09:12:11;21.70;50.10
76789;DHT22;65740;52.464;13.446;2023-08-06T09:14:37;21.70;50.10
76789;DHT22;65740;52.464;13.446;2023-08-06T09:17:04;21.70;50.20
76789;DHT22;65740;52.464;13.446;2023-08-06T09:19:30;21.70;50.20
76789;DHT22;65740;52.464;13.446;2023-08-06T09:21:56;21.70;50.20
76789;DHT22;65740;52.464;13.446;2023-08-06T09:24:22;21.70;50.20
76789;DHT22;65740;52.464;13.446;2023-08-06T09:26:48;21.70;50.20
76789;DHT22;65740;52.464;13.446;2023-08-06T09:29:13;21.70;50.20
76789;DHT22;65740;52.464;13.446;2023-08-06T09:31:48;21.70;50.20
76789;DHT22;65740;52.464;13.446;2023-08-06T09:34:32;21.70;50.30
76789;DHT22;65740;52.464;13.446;2023-08-06T09:36:57;21.70;50.30
76789;DHT22;65740;52.464;13.446;2023-08-06T09:39:30;21.70;50.30
76789;DHT22;65740;52.464;13.446;2023-08-06T09:41:57;21.70;50.40
76789;DHT22;65740;52.464;13.446;2023-08-06T09:44:24;21.70;50.40
76789;DHT22;65740;52.464;13.446;2023-08-06T09:46:57;21.70;50.40
76789;DHT22;65740;52.464;13.446;2023-08-06T09:49:28;21.70;50.40
76789;DHT22;65740;52.464;13.446;2023-08-06T09:51:54;21.70;50.50
76789;DHT22;65740;52.464;13.446;2023-08-06T09:54:24;21.70;50.50
76789;DHT22;65740;52.464;13.446;2023-08-06T09:56:52;21.70;50.50
76789;DHT22;65740;52.464;13.446;2023-08-06T09:59:19;21.70;50.50
76789;DHT22;65740;52.464;13.446;2023-08-06T10:01:45;21.70;50.40
76789;DHT22;65740;52.464;13.446;2023-08-06T10:04:13;21.70;50.50
76789;DHT22;65740;52.464;13.446;2023-08-06T10:06:42;21.70;50.50
76789;DHT22;65740;52.464;13.446;2023-08-06T10:09:08;21.70;50.50
76789;DHT22;65740;52.464;13.446;2023-08-06T10:11:36;21.70;50.60
76789;DHT22;65740;52.464;13.446;2023-08-06T10:14:14;21.70;50.60
76789;DHT22;65740;52.464;13.446;2023-08-06T10:16:42;21.70;50.50
76789;DHT22;65740;52.464;13.446;2023-08-06T10:19:10;21.70;50.60
76789;DHT22;65740;52.464;13.446;2023-08-06T10:21:39;21.70;50.50
76789;DHT22;65740;52.464;13.446;2023-08-06T10:24:08;21.70;50.60
76789;DHT22;65740;52.464;13.446;2023-08-06T10:26:36;21.70;50.60
76789;DHT22;65740;52.464;13.446;2023-08-06T10:29:35;21.70;50.50
76789;DHT22;65740;52.464;13.446;2023-08-06T10:32:04;21.60;50.50
76789;DHT22;65740;52.464;13.446;2023-08-06T10:34:58;21.60;50.60
76789;DHT22;65740;52.464;13.446;2023-08-06T10:37:44;21.60;51.60
76789;DHT22;65740;52.464;13.446;2023-08-06T10:40:10;21.60;52.20
76789;DHT22;65740;52.464;13.446;2023-08-06T10:42:35;21.60;54.00
76789;DHT22;65740;52.464;13.446;2023-08-06T10:45:16;21.60;53.10
76789;DHT22;65740;52.464;13.446;2023-08-06T10:47:42;21.60;55.40
76789;DHT22;65740;52.464;13.446;2023-08-06T10:50:14;21.60;54.60
76789;DHT22;65740;52.464;13.446;2023-08-06T10:52:47;21.60;56.20
76789;DHT22;65740;52.464;13.446;2023-08-06T10:55:13;21.60;56.80
76789;DHT22;65740;52.464;13.446;2023-08-06T10:57:39;21.60;56.20
76789;DHT22;65740;52.464;13.446;2023-08-06T11:00:07;21.60;56.20
76789;DHT22;65740;52.464;13.446;2023-08-06T11:02:34;21.60;56.90
76789;DHT22;65740;52.464;13.446;2023-08-06T11:05:08;21.60;56.00
76789;DHT22;65740;52.464;13.446;2023-08-06T11:07:37;21.60;56.50
76789;DHT22;65740;52.464;13.446;2023-08-06T11:10:07;21.60;56.90
76789;DHT22;65740;52.464;13.446;2023-08-06T11:12:33;21.60;56.20
76789;DHT22;65740;52.464;13.446;2023-08-06T11:15:00;21.60;56.80
76789;DHT22;65740;52.464;13.446;2023-08-06T11:17:28;21.60;56.90
76789;DHT22;65740;52.464;13.446;2023-08-06T11:19:54;21.60;56.80
76789;DHT22;65740;52.464;13.446;2023-08-06T11:22:22;21.60;56.80
76789;DHT22;65740;52.464;13.446;2023-08-06T11:24:48;21.60;56.20
76789;DHT22;65740;52.464;13.446;2023-08-06T11:27:16;21.60;56.90
76789;DHT22;65740;52.464;13.446;2023-08-06T11:29:43;21.60;56.30
76789;DHT22;65740;52.464;13.446;2023-08-06T11:32:10;21.60;56.80
76789;DHT22;65740;52.464;13.446;2023-08-06T11:34:36;21.60;56.80
76789;DHT22;65740;52.464;13.446;2023-08-06T11:37:05;21.60;56.90
76789;DHT22;65740;52.464;13.446;2023-08-06T11:39:35;21.60;56.90
76789;DHT22;65740;52.464;13.446;2023-08-06T11:42:07;21.60;56.60
76789;DHT22;65740;52.464;13.446;2023-08-06T11:44:35;21.60;56.80
76789;DHT22;65740;52.464;13.446;2023-08-06T11:47:02;21.60;56.90
76789;DHT22;65740;52.464;13.446;2023-08-06T11:54:47;21.60;56.80
76789;DHT22;65740;52.464;13.446;2023-08-06T11:57:13;21.60;56.90
76789;DHT22;65740;52.464;13.446;2023-08-06T11:59:39;21.60;57.40
76789;DHT22;65740;52.464;13.446;2023-08-06T12:02:07;21.60;58.10
76789;DHT22;65740;52.464;13.446;2023-08-06T12:04:58;21.60;56.90
76789;DHT22;65740;52.464;13.446;2023-08-06T12:07:32;21.60;57.10
76789;DHT22;65740;52.464;13.446;2023-08-06T12:09:58;21.60;57.30
76789;DHT22;65740;52.464;13.446;2023-08-06T12:12:24;21.60;57.80
76789;DHT22;65740;52.464;13.446;2023-08-06T12:14:50;21.60;57.60
76789;DHT22;65740;52.464;13.446;2023-08-06T12:17:16;21.60;57.80
76789;DHT22;65740;52.464;13.446;2023-08-06T12:19:41;21.60;57.60
76789;DHT22;65740;52.464;13.446;2023-08-06T12:22:07;21.70;58.40
76789;DHT22;65740;52.464;13.446;2023-08-06T12:24:32;21.70;58.00
76789;DHT22;65740;52.464;13.446;2023-08-06T12:26:58;21.70;58.00
76789;DHT22;65740;52.464;13.446;2023-08-06T12:29:25;21.70;57.50
76789;DHT22;65740;52.464;13.446;2023-08-06T12:31:51;21.70;57.90
76789;DHT22;65740;52.464;13.446;2023-08-06T12:34:16;21.70;57.90
76789;DHT22;65740;52.464;13.446;2023-08-06T12:36:42;21.70;57.90
76789;DHT22;65740;52.464;13.446;2023-08-06T12:39:07;21.80;57.70
76789;DHT22;65740;52.464;13.446;2023-08-06T12:41:33;21.70;57.80
76789;DHT22;65740;52.464;13.446;2023-08-06T12:43:59;21.80;57.70
76789;DHT22;65740;52.464;13.446;2023-08-06T12:46:24;21.80;57.90
76789;DHT22;65740;52.464;13.446;2023-08-06T12:48:50;21.80;57.50
76789;DHT22;65740;52.464;13.446;2023-08-06T12:51:16;21.80;57.40
76789;DHT22;65740;52.464;13.446;2023-08-06T12:53:42;21.80;57.10
76789;DHT22;65740;52.464;13.446;2023-08-06T12:56:07;21.80;57.10
76789;DHT22;65740;52.464;13.446;2023-08-06T12:58:33;21.80;57.00
76789;DHT22;65740;52.464;13.446;2023-08-06T13:00:59;21.80;57.00
76789;DHT22;65740;52.464;13.446;2023-08-06T13:03:24;21.80;57.00
76789;DHT22;65740;52.464;13.446;2023-08-06T13:05:50;21.80;57.20
76789;DHT22;65740;52.464;13.446;2023-08-06T13:08:16;21.80;57.30
76789;DHT22;65740;52.464;13.446;2023-08-06T13:10:42;21.80;57.40
76789;DHT22;65740;52.464;13.446;2023-08-06T13:13:08;21.80;57.10
76789;DHT22;65740;52.464;13.446;2023-08-06T13:15:35;21.80;57.00
76789;DHT22;65740;52.464;13.446;2023-08-06T13:18:01;21.80;57.00
76789;DHT22;65740;52.464;13.446;2023-08-06T13:20:27;21.80;57.00
76789;DHT22;65740;52.464;13.446;2023-08-06T13:22:54;21.90;57.10
76789;DHT22;65740;52.464;13.446;2023-08-06T13:25:20;21.90;57.10
76789;DHT22;65740;52.464;13.446;2023-08-06T13:27:46;21.90;57.10
76789;DHT22;65740;52.464;13.446;2023-08-06T13:30:11;21.90;57.10
76789;DHT22;65740;52.464;13.446;2023-08-06T13:32:37;21.90;57.10
76789;DHT22;65740;52.464;13.446;2023-08-06T13:35:06;21.90;57.10
76789;DHT22;65740;52.464;13.446;2023-08-06T13:37:31;21.90;57.10
76789;DHT22;65740;52.464;13.446;2023-08-06T13:39:57;21.90;57.10
76789;DHT22;65740;52.464;13.446;2023-08-06T13:42:22;21.90;57.80
76789;DHT22;65740;52.464;13.446;2023-08-06T13:44:48;21.90;57.10
76789;DHT22;65740;52.464;13.446;2023-08-06T13:47:14;21.90;57.10
76789;DHT22;65740;52.464;13.446;2023-08-06T13:49:39;21.90;57.80
76789;DHT22;65740;52.464;13.446;2023-08-06T13:52:05;21.90;57.10
76789;DHT22;65740;52.464;13.446;2023-08-06T13:54:30;21.90;57.10
76789;DHT22;65740;52.464;13.446;2023-08-06T13:56:56;21.90;57.20
76789;DHT22;65740;52.464;13.446;2023-08-06T13:59:22;21.90;57.10
76789;DHT22;65740;52.464;13.446;2023-08-06T14:01:49;21.90;57.10
76789;DHT22;65740;52.464;13.446;2023-08-06T14:04:15;21.90;57.10
76789;DHT22;65740;52.464;13.446;2023-08-06T14:06:41;22.00;57.20
76789;DHT22;65740;52.464;13.446;2023-08-06T14:09:07;21.90;57.10
76789;DHT22;65740;52.464;13.446;2023-08-06T14:11:33;22.00;57.20
76789;DHT22;65740;52.464;13.446;2023-08-06T14:13:59;22.00;57.20
76789;DHT22;65740;52.464;13.446;2023-08-06T14:16:25;21.90;57.10
76789;DHT22;65740;52.464;13.446;2023-08-06T14:18:51;21.90;57.10
76789;DHT22;65740;52.464;13.446;2023-08-06T14:21:17;21.90;57.10
76789;DHT22;65740;52.464;13.446;2023-08-06T14:23:42;22.00;57.20
76789;DHT22;65740;52.464;13.446;2023-08-06T14:26:08;22.00;57.20
76789;DHT22;65740;52.464;13.446;2023-08-06T14:28:36;22.00;57.20
76789;DHT22;65740;52.464;13.446;2023-08-06T14:31:02;22.00;57.20
76789;DHT22;65740;52.464;13.446;2023-08-06T14:33:27;21.90;57.10
76789;DHT22;65740;52.464;13.446;2023-08-06T14:35:53;22.00;57.20
76789;DHT22;65740;52.464;13.446;2023-08-06T14:38:18;21.90;57.10
76789;DHT22;65740;52.464;13.446;2023-08-06T14:40:44;22.00;57.20
76789;DHT22;65740;52.464;13.446;2023-08-06T14:43:10;22.00;57.20
76789;DHT22;65740;52.464;13.446;2023-08-06T14:45:39;22.00;57.20
76789;DHT22;65740;52.464;13.446;2023-08-06T14:48:05;22.00;57.20
76789;DHT22;65740;52.464;13.446;2023-08-06T14:50:31;22.00;57.20
76789;DHT22;65740;52.464;13.446;2023-08-06T14:52:56;22.00;57.20
76789;DHT22;65740;52.464;13.446;2023-08-06T14:55:25;22.00;57.20
76789;DHT22;65740;52.464;13.446;2023-08-06T14:57:52;22.00;57.20
76789;DHT22;65740;52.464;13.446;2023-08-06T15:00:20;22.00;57.20
76789;DHT22;65740;52.464;13.446;2023-08-06T15:02:46;22.00;57.20
76789;DHT22;65740;52.464;13.446;2023-08-06T15:05:12;22.00;57.20
76789;DHT22;65740;52.464;13.446;2023-08-06T15:07:37;22.00;57.20
76789;DHT22;65740;52.464;13.446;2023-08-06T15:10:05;22.00;57.20
76789;DHT22;65740;52.464;13.446;2023-08-06T15:12:33;22.00;57.20
76789;DHT22;65740;52.464;13.446;2023-08-06T15:14:59;22.00;57.80
76789;DHT22;65740;52.464;13.446;2023-08-06T15:17:26;22.00;57.20
76789;DHT22;65740;52.464;13.446;2023-08-06T15:19:56;22.00;57.20
76789;DHT22;65740;52.464;13.446;2023-08-06T15:22:23;22.00;57.20
76789;DHT22;65740;52.464;13.446;2023-08-06T15:24:48;22.00;57.20